Time;durP1;ratioP1;P1;durP2;ratioP2;P2;SDS_P1;SDS_P2;PMS_P1;PMS_P2;Temp;Humidity;BMP_temperature;BMP_pressure;BME280_temperature;BME280_humidity;BME280_pressure;Samples;Min_cycle;Max_cycle;Signal;HPM_P1;HPM_P2
2023/08/15 00:00:12;;;;;;;41.20;4.07;;;;;;;24.80;61.56;99526.94;7308870;19;128919;-39
2023/08/15 00:02:37;;;;;;;62.50;6.33;;;;;;;24.82;61.31;99526.75;7305689;19;129361;-34
2023/08/15 00:05:03;;;;;;;48.30;5.23;;;;;;;24.81;61.72;99536.44;7306866;19;129087;-37
2023/08/15 00:07:28;;;;;;;56.10;5.57;;;;;;;24.81;61.67;99530.38;7305862;19;130309;-35
2023/08/15 00:09:53;;;;;;;38.00;3.73;;;;;;;24.81;61.41;99536.44;7307932;19;130623;-40
2023/08/15 00:12:19;;;;;;;30.83;4.13;;;;;;;24.81;61.69;99535.66;7304674;19;129417;-34
2023/08/15 00:14:44;;;;;;;27.93;3.23;;;;;;;24.81;61.88;99540.91;7306234;19;129274;-36
2023/08/15 00:17:09;;;;;;;50.90;4.77;;;;;;;24.81;62.23;99540.91;7306312;19;130758;-39
2023/08/15 00:19:35;;;;;;;77.13;7.07;;;;;;;24.81;62.38;99530.38;7307713;19;129027;-38
2023/08/15 00:22:00;;;;;;;27.27;3.63;;;;;;;24.82;61.95;99532.03;7305151;19;128931;-40
2023/08/15 00:24:25;;;;;;;101.27;8.43;;;;;;;24.81;61.90;99520.66;7305042;19;129556;-39
2023/08/15 00:26:51;;;;;;;124.63;9.97;;;;;;;24.82;61.90;99519.69;7298685;19;130481;-39
2023/08/15 00:29:16;;;;;;;35.83;4.13;;;;;;;24.83;62.02;99520.50;7303440;19;129372;-44
2023/08/15 00:31:41;;;;;;;37.93;4.30;;;;;;;24.81;62.30;99525.94;7306183;19;130181;-31
2023/08/15 00:34:07;;;;;;;76.73;7.03;;;;;;;24.80;61.63;99519.03;7302853;19;129710;-45
2023/08/15 00:36:32;;;;;;;99.27;7.57;;;;;;;24.82;62.11;99524.13;7304744;19;129605;-39
2023/08/15 00:39:02;;;;;;;37.03;4.00;;;;;;;24.82;62.10;99518.88;7305881;19;129250;-34
2023/08/15 00:41:27;;;;;;;72.68;6.38;;;;;;;24.82;61.73;99526.75;7304996;19;129523;-37
2023/08/15 00:43:53;;;;;;;57.33;5.43;;;;;;;24.82;61.69;99521.50;7306670;19;129167;-38
2023/08/15 00:46:18;;;;;;;57.70;5.53;;;;;;;24.81;62.09;99528.56;7302100;19;129503;-40
2023/08/15 00:48:44;;;;;;;32.90;3.70;;;;;;;24.80;61.49;99519.03;7305332;19;128880;-37
2023/08/15 00:51:09;;;;;;;42.33;4.60;;;;;;;24.82;61.79;99526.75;7306059;19;130685;-38
2023/08/15 00:53:35;;;;;;;63.43;5.60;;;;;;;24.81;62.28;99522.50;7304609;19;131432;-45
2023/08/15 00:56:01;;;;;;;33.50;3.97;;;;;;;24.82;62.36;99532.03;7304674;19;129856;-36
2023/08/15 00:58:29;;;;;;;36.72;4.00;;;;;;;24.81;62.01;99525.94;7306472;19;129836;-34
2023/08/15 01:00:54;;;;;;;47.15;4.72;;;;;;;24.79;61.78;99512.13;7304580;19;130791;-38
2023/08/15 01:03:21;;;;;;;33.13;4.00;;;;;;;24.78;61.72;99509.66;7308620;19;130617;-39
2023/08/15 01:05:47;;;;;;;67.63;6.18;;;;;;;24.81;62.20;99504.09;7308762;19;130970;-45
2023/08/15 01:08:13;;;;;;;42.08;4.05;;;;;;;24.82;62.62;99516.25;7305044;19;129918;-34
2023/08/15 01:10:39;;;;;;;53.17;4.97;;;;;;;24.83;62.20;99512.63;7310797;19;129997;-44
2023/08/15 01:13:43;;;;;;;66.88;5.80;;;;;;;24.86;62.45;99507.06;7306986;19;129707;-41
2023/08/15 01:16:15;;;;;;;58.95;5.85;;;;;;;24.75;62.51;99499.47;7309682;19;130223;-36
2023/08/15 01:18:50;;;;;;;49.38;4.75;;;;;;;24.83;62.10;99508.19;7306987;19;130358;-40
2023/08/15 01:21:20;;;;;;;95.72;7.78;;;;;;;24.83;61.87;99512.63;7310002;19;130597;-42
2023/08/15 01:23:46;;;;;;;33.40;3.72;;;;;;;24.83;62.02;99507.34;7308652;19;129527;-38
2023/08/15 01:26:12;;;;;;;58.67;5.65;;;;;;;24.81;62.08;99494.38;7306633;19;130399;-40
2023/08/15 01:28:40;;;;;;;57.03;5.57;;;;;;;24.85;62.38;99505.41;7308246;19;130605;-38
2023/08/15 01:31:23;;;;;;;56.45;5.00;;;;;;;24.87;62.41;99498.16;7311607;19;130590;-35
2023/08/15 01:34:13;;;;;;;58.92;5.15;;;;;;;24.87;62.36;99500.81;7311366;19;130267;-42
2023/08/15 01:36:44;;;;;;;81.25;6.72;;;;;;;24.87;62.01;99499.00;7309411;19;132132;-38
2023/08/15 01:39:12;;;;;;;25.77;3.55;;;;;;;24.87;61.91;99495.53;7313178;19;129562;-36
2023/08/15 01:41:41;;;;;;;61.83;5.85;;;;;;;24.85;61.76;99486.97;7307925;19;130585;-39
2023/08/15 01:44:11;;;;;;;43.83;4.20;;;;;;;24.86;62.64;99491.28;7310991;19;131606;-33
2023/08/15 01:46:37;;;;;;;73.82;6.32;;;;;;;24.89;61.76;99486.50;7310302;19;130356;-41
2023/08/15 01:49:02;;;;;;;65.87;5.80;;;;;;;24.89;61.98;99475.16;7305858;19;130572;-36
2023/08/15 01:51:28;;;;;;;47.23;4.53;;;;;;;24.92;61.66;99474.84;7311275;19;131096;-39
2023/08/15 01:53:53;;;;;;;64.70;5.93;;;;;;;24.89;61.79;99469.91;7310317;19;129541;-38
2023/08/15 01:56:18;;;;;;;77.73;6.33;;;;;;;24.91;62.33;99478.44;7309441;19;129918;-38
2023/08/15 01:58:44;;;;;;;30.17;3.50;;;;;;;24.91;61.90;99486.31;7309598;19;129921;-40
2023/08/15 02:01:09;;;;;;;29.50;3.47;;;;;;;24.90;62.32;99482.06;7308520;19;129601;-37
2023/08/15 02:03:35;;;;;;;32.53;3.60;;;;;;;24.90;61.62;99482.06;7309380;19;131058;-39
2023/08/15 02:06:00;;;;;;;49.23;4.47;;;;;;;24.88;61.97;99471.72;7308787;19;129766;-43
2023/08/15 02:08:25;;;;;;;63.13;5.77;;;;;;;24.85;61.97;99469.41;7309784;19;130062;-40
2023/08/15 02:10:51;;;;;;;53.93;4.87;;;;;;;24.85;62.51;99468.56;7310970;19;129155;-38
2023/08/15 02:13:17;;;;;;;49.77;5.00;;;;;;;24.86;62.09;99471.03;7309619;19;130278;-43
2023/08/15 02:15:42;;;;;;;68.17;5.77;;;;;;;24.86;62.36;99465.78;7304656;19;130410;-43
2023/08/15 02:18:08;;;;;;;29.47;3.20;;;;;;;24.86;61.92;99465.78;7310255;19;129535;-39
2023/08/15 02:20:33;;;;;;;56.00;5.17;;;;;;;24.87;62.35;99466.63;7308384;19;130109;-39
2023/08/15 02:22:58;;;;;;;54.97;5.10;;;;;;;24.87;62.46;99466.63;7309191;19;130305;-33
2023/08/15 02:25:24;;;;;;;45.03;4.17;;;;;;;24.87;62.07;99467.44;7309810;19;129571;-37
2023/08/15 02:27:49;;;;;;;59.83;5.27;;;;;;;24.87;61.74;99472.69;7307271;19;129536;-35
2023/08/15 02:30:15;;;;;;;34.13;3.83;;;;;;;24.77;62.15;99445.75;7310356;19;129525;-41
2023/08/15 02:32:40;;;;;;;43.97;4.07;;;;;;;24.85;62.43;99458.06;7308359;19;130177;-34
2023/08/15 02:35:06;;;;;;;58.77;5.50;;;;;;;24.88;61.82;99460.34;7309008;19;129572;-37
2023/08/15 02:37:31;;;;;;;38.37;4.20;;;;;;;24.88;61.81;99452.47;7309468;19;130042;-35
2023/08/15 02:39:57;;;;;;;25.73;3.33;;;;;;;24.80;62.51;99428.81;7309827;19;129954;-38
2023/08/15 02:42:22;;;;;;;72.17;6.10;;;;;;;24.88;62.28;99434.88;7307817;19;129990;-42
2023/08/15 02:44:47;;;;;;;27.47;3.23;;;;;;;24.88;62.34;99441.94;7305252;19;129616;-39
2023/08/15 02:47:13;;;;;;;33.73;3.40;;;;;;;24.88;61.89;99428.78;7310218;19;129270;-35
2023/08/15 02:49:38;;;;;;;89.07;7.10;;;;;;;24.89;62.09;99431.25;7302362;19;130389;-39
2023/08/15 02:52:04;;;;;;;37.13;3.50;;;;;;;24.83;62.35;99417.94;7308430;19;131152;-37
2023/08/15 02:54:30;;;;;;;119.75;9.55;;;;;;;24.86;62.38;99422.91;7308381;19;129742;-43
2023/08/15 02:56:55;;;;;;;60.27;5.47;;;;;;;24.89;61.99;99419.94;7304678;19;131787;-36
2023/08/15 02:59:20;;;;;;;60.00;5.63;;;;;;;24.90;61.74;99424.19;7304914;19;129751;-42
2023/08/15 03:01:47;;;;;;;51.07;4.37;;;;;;;24.89;61.71;99418.09;7307296;19;129576;-38
2023/08/15 03:04:12;;;;;;;62.15;5.63;;;;;;;24.90;61.76;99413.69;7309286;19;129613;-36
2023/08/15 03:06:38;;;;;;;49.00;4.23;;;;;;;24.88;61.69;99413.84;7309671;19;131102;-38
2023/08/15 03:09:03;;;;;;;68.00;6.07;;;;;;;24.91;62.37;99428.47;7306092;19;130073;-38
2023/08/15 03:11:29;;;;;;;70.50;6.00;;;;;;;24.90;61.82;99424.19;7306884;19;129646;-40
2023/08/15 03:13:55;;;;;;;77.60;5.77;;;;;;;24.89;61.88;99423.38;7308364;19;130271;-38
2023/08/15 03:16:21;;;;;;;40.87;4.13;;;;;;;24.90;62.09;99418.94;7309782;19;129808;-36
2023/08/15 03:18:46;;;;;;;66.10;5.90;;;;;;;24.90;62.32;99418.94;7302788;19;131145;-42
2023/08/15 03:21:12;;;;;;;44.23;3.87;;;;;;;24.87;61.73;99409.59;7306279;19;131429;-44
2023/08/15 03:23:37;;;;;;;48.63;4.70;;;;;;;24.90;62.16;99411.03;7307803;19;129673;-37
2023/08/15 03:26:04;;;;;;;28.17;3.17;;;;;;;24.89;61.76;99412.84;7306598;19;128841;-42
2023/08/15 03:28:30;;;;;;;74.35;6.25;;;;;;;24.79;62.00;99385.91;7303944;19;130585;-41
2023/08/15 03:30:56;;;;;;;41.13;3.73;;;;;;;24.88;61.93;99411.22;7309010;19;129624;-39
2023/08/15 03:33:23;;;;;;;32.63;3.40;;;;;;;24.87;61.95;99403.50;7307830;19;129222;-41
2023/08/15 03:35:51;;;;;;;53.13;4.72;;;;;;;24.86;62.06;99404.50;7305819;19;131188;-38
2023/08/15 03:38:19;;;;;;;53.38;4.57;;;;;;;24.86;62.51;99392.16;7306609;19;130156;-42
2023/08/15 03:40:45;;;;;;;59.20;5.25;;;;;;;24.87;62.34;99403.50;7308150;19;130127;-42
2023/08/15 03:43:11;;;;;;;;;;;;;;;24.96;62.33;99410.38;7308016;19;130925;-35
2023/08/15 03:45:37;;;;;;;35.15;3.35;;;;;;;24.88;62.23;99405.13;7307728;19;129433;-37
2023/08/15 03:48:04;;;;;;;66.80;5.68;;;;;;;24.88;62.42;99405.13;7306467;19;129798;-37
2023/08/15 03:50:39;;;;;;;45.95;4.07;;;;;;;24.87;62.25;99406.13;7309016;19;130116;-35
2023/08/15 03:53:04;;;;;;;51.55;4.63;;;;;;;24.86;61.84;99401.88;7307465;19;130211;-42
2023/08/15 03:55:31;;;;;;;46.77;4.53;;;;;;;24.87;62.41;99393.81;7306413;19;129701;-41
2023/08/15 03:57:56;;;;;;;32.33;3.30;;;;;;;24.77;62.03;99373.91;7305768;19;129436;-39
2023/08/15 04:00:23;;;;;;;70.37;5.80;;;;;;;24.85;62.09;99389.69;7305702;19;131041;-38
2023/08/15 04:02:48;;;;;;;36.63;3.72;;;;;;;24.85;62.16;99390.50;7306351;19;130810;-33
2023/08/15 04:05:14;;;;;;;128.67;9.77;;;;;;;24.86;62.08;99386.09;7302661;19;131065;-41
2023/08/15 04:07:40;;;;;;;62.87;5.60;;;;;;;24.85;62.49;99390.50;7303816;19;129833;-34
2023/08/15 04:10:06;;;;;;;47.90;4.30;;;;;;;24.86;62.50;99393.97;7304746;19;130827;-35
2023/08/15 04:12:33;;;;;;;64.32;5.28;;;;;;;24.84;62.06;99383.59;7300944;19;130602;-45
2023/08/15 04:14:59;;;;;;;33.80;3.78;;;;;;;24.85;61.71;99387.06;7304220;19;129181;-36
2023/08/15 04:17:25;;;;;;;84.10;6.70;;;;;;;24.85;61.78;99389.69;7303912;19;129195;-38
2023/08/15 04:19:51;;;;;;;64.93;5.43;;;;;;;24.85;61.90;99384.44;7302456;19;130398;-35
2023/08/15 04:22:16;;;;;;;38.27;3.73;;;;;;;24.85;62.14;99392.31;7304094;19;129599;-39
2023/08/15 04:24:41;;;;;;;22.37;2.60;;;;;;;24.87;61.71;99392.97;7303667;19;129489;-43
2023/08/15 04:27:07;;;;;;;62.90;5.20;;;;;;;24.88;61.65;99389.34;7302995;19;129124;-39
2023/08/15 04:29:32;;;;;;;48.47;4.47;;;;;;;24.85;61.89;99381.78;7301495;19;131191;-36
2023/08/15 04:31:58;;;;;;;35.63;3.37;;;;;;;24.85;61.94;99379.16;7306233;19;130089;-35
2023/08/15 04:34:23;;;;;;;119.50;9.23;;;;;;;24.82;62.07;99374.25;7299363;19;129059;-45
2023/08/15 04:36:49;;;;;;;35.83;3.60;;;;;;;24.85;61.92;99374.75;7305695;19;129666;-41
2023/08/15 04:39:15;;;;;;;57.27;4.87;;;;;;;24.84;62.34;99375.69;7297477;19;129292;-40
2023/08/15 04:41:41;;;;;;;65.60;5.47;;;;;;;24.83;61.94;99375.88;7302187;19;130584;-35
2023/08/15 04:44:07;;;;;;;20.90;2.80;;;;;;;24.85;62.17;99381.78;7305083;19;130441;-41
2023/08/15 04:46:33;;;;;;;70.03;5.73;;;;;;;24.84;62.18;99377.53;7295629;19;129902;-41
2023/08/15 04:48:58;;;;;;;69.70;6.03;;;;;;;24.83;61.74;99381.97;7303198;19;129233;-42
2023/08/15 04:51:23;;;;;;;35.33;3.40;;;;;;;24.85;61.73;99384.44;7301155;19;130320;-36
2023/08/15 04:53:49;;;;;;;66.63;5.70;;;;;;;24.85;62.39;99381.78;7304459;19;130237;-39
2023/08/15 04:56:14;;;;;;;88.13;6.97;;;;;;;24.83;62.12;99392.47;7293430;19;130272;-43
2023/08/15 04:58:40;;;;;;;36.90;3.93;;;;;;;24.85;61.84;99389.69;7301694;19;129372;-41
2023/08/15 05:01:05;;;;;;;73.93;6.23;;;;;;;24.83;61.77;99391.66;7300653;19;129619;-44
2023/08/15 05:03:31;;;;;;;45.57;4.27;;;;;;;24.83;61.90;99400.38;7301509;19;131644;-35
2023/08/15 05:05:56;;;;;;;68.93;5.67;;;;;;;24.84;62.13;99393.31;7301106;19;129357;-40
2023/08/15 05:08:21;;;;;;;51.93;4.70;;;;;;;24.84;62.01;99401.19;7298178;19;130192;-37
2023/08/15 05:10:47;;;;;;;58.33;5.40;;;;;;;24.85;61.79;99410.72;7302416;19;129688;-43
2023/08/15 05:13:12;;;;;;;44.70;3.87;;;;;;;24.83;62.39;99408.25;7302500;19;129828;-36
2023/08/15 05:15:37;;;;;;;80.40;6.43;;;;;;;24.83;61.81;99402.16;7301251;19;129995;-40
2023/08/15 05:18:03;;;;;;;30.13;3.27;;;;;;;24.74;62.14;99397.91;7302263;19;129610;-43
2023/08/15 05:20:29;;;;;;;47.90;4.53;;;;;;;24.83;61.78;99410.06;7302318;19;130087;-45
2023/08/15 05:22:55;;;;;;;95.20;7.38;;;;;;;24.83;62.23;99416.16;7296652;19;130587;-37
2023/08/15 05:25:21;;;;;;;27.87;3.10;;;;;;;24.84;62.16;99414.34;7301683;19;129993;-40
2023/08/15 05:27:48;;;;;;;179.83;13.40;;;;;;;24.83;62.03;99408.25;7298643;19;131620;-42
2023/08/15 05:30:14;;;;;;;50.03;4.78;;;;;;;24.82;61.98;99400.53;7299982;19;130331;-37
2023/08/15 05:32:39;;;;;;;76.77;6.33;;;;;;;24.84;62.08;99403.84;7302257;19;129954;-42
2023/08/15 05:35:05;;;;;;;53.63;5.17;;;;;;;24.84;62.00;99403.84;7303170;19;129494;-37
2023/08/15 05:37:31;;;;;;;76.00;6.70;;;;;;;24.82;62.22;99413.69;7296218;19;130916;-43
2023/08/15 05:39:56;;;;;;;39.27;4.07;;;;;;;24.84;61.62;99409.09;7298561;19;130466;-38
2023/08/15 05:42:21;;;;;;;95.57;7.40;;;;;;;24.84;62.19;99414.34;7300697;19;130329;-43
2023/08/15 05:44:47;;;;;;;30.33;3.00;;;;;;;24.84;61.90;99407.25;7298906;19;129960;-46
2023/08/15 05:47:13;;;;;;;98.97;8.10;;;;;;;24.84;61.97;99424.88;7293221;19;129967;-46
2023/08/15 05:49:41;;;;;;;45.77;3.87;;;;;;;24.83;61.93;99418.78;7300792;19;131118;-36
2023/08/15 05:52:06;;;;;;;82.07;7.07;;;;;;;24.83;61.99;99420.56;7295538;19;129880;-36
2023/08/15 05:54:32;;;;;;;129.70;10.53;;;;;;;24.85;61.69;99426.50;7296440;19;130257;-43
2023/08/15 05:56:57;;;;;;;52.23;5.40;;;;;;;24.82;61.97;99425.03;7300341;19;130605;-37
2023/08/15 05:59:23;;;;;;;70.87;5.93;;;;;;;24.81;61.95;99425.19;7302676;19;129952;-42
2023/08/15 06:01:48;;;;;;;39.23;3.63;;;;;;;24.85;61.36;99423.88;7309733;19;129178;-42
2023/08/15 06:04:14;;;;;;;62.73;5.27;;;;;;;24.86;61.96;99428.16;7309273;19;129832;-38
2023/08/15 06:06:39;;;;;;;75.67;6.47;;;;;;;24.84;62.02;99420.41;7308732;19;130518;-36
2023/08/15 06:09:05;;;;;;;50.80;4.00;;;;;;;24.76;62.30;99406.47;7306968;19;129727;-39
2023/08/15 06:11:30;;;;;;;71.33;6.10;;;;;;;24.85;62.29;99429.97;7305791;19;131167;-44
2023/08/15 06:13:55;;;;;;;93.60;7.53;;;;;;;24.87;62.11;99429.78;7308460;19;130034;-38
2023/08/15 06:16:21;;;;;;;14.73;2.50;;;;;;;24.88;61.56;99431.44;7308040;19;129489;-36
2023/08/15 06:18:46;;;;;;;113.43;9.37;;;;;;;24.88;61.75;99431.44;7305362;19;132698;-42
2023/08/15 06:21:12;;;;;;;105.97;8.17;;;;;;;24.87;61.48;99419.28;7306987;19;129852;-37
2023/08/15 06:23:37;;;;;;;33.07;3.57;;;;;;;24.88;62.09;99423.53;7309772;19;129168;-40
2023/08/15 06:26:03;;;;;;;58.53;5.37;;;;;;;24.86;62.12;99417.66;7306663;19;129688;-33
2023/08/15 06:28:29;;;;;;;90.37;7.27;;;;;;;24.81;61.47;99419.94;7307323;19;130826;-38
2023/08/15 06:30:54;;;;;;;65.30;5.80;;;;;;;24.88;62.03;99427.00;7307955;19;130802;-41
2023/08/15 06:33:19;;;;;;;74.37;6.03;;;;;;;24.87;61.63;99429.78;7307077;19;130945;-39
2023/08/15 06:35:45;;;;;;;86.87;7.07;;;;;;;24.82;61.23;99424.22;7297328;19;130338;-44
2023/08/15 06:38:10;;;;;;;51.17;4.40;;;;;;;24.84;61.44;99422.25;7306582;19;129662;-38
2023/08/15 06:40:36;;;;;;;27.13;3.43;;;;;;;24.84;61.33;99419.63;7310962;19;129256;-42
2023/08/15 06:43:01;;;;;;;28.90;3.77;;;;;;;24.83;61.81;99423.22;7308383;19;130593;-42
2023/08/15 06:45:27;;;;;;;46.10;4.97;;;;;;;24.84;62.52;99425.66;7306359;19;130230;-44
2023/08/15 06:47:52;;;;;;;56.67;5.43;;;;;;;24.86;62.09;99425.53;7307879;19;129933;-39
2023/08/15 06:50:18;;;;;;;42.17;4.27;;;;;;;24.90;62.31;99429.47;7307803;19;130243;-43
2023/08/15 06:52:43;;;;;;;53.93;5.40;;;;;;;24.84;62.30;99428.31;7307094;19;129154;-39
2023/08/15 06:55:09;;;;;;;57.37;5.73;;;;;;;24.87;62.60;99429.78;7307415;19;130726;-42
2023/08/15 06:57:34;;;;;;;43.30;4.40;;;;;;;24.93;62.36;99419.44;7308252;19;130605;-42
2023/08/15 07:00:00;;;;;;;38.23;4.27;;;;;;;24.93;62.57;99426.50;7305150;19;129156;-43
2023/08/15 07:02:27;;;;;;;61.23;6.37;;;;;;;24.85;62.45;99411.56;7305264;19;130438;-43
2023/08/15 07:04:53;;;;;;;62.30;5.93;;;;;;;24.98;62.01;99426.81;7306370;19;131348;-42
2023/08/15 07:07:18;;;;;;;67.60;6.30;;;;;;;24.99;61.80;99423.22;7308194;19;130373;-41
2023/08/15 07:09:45;;;;;;;36.53;4.20;;;;;;;25.05;62.05;99422.56;7310980;19;129457;-42
2023/08/15 07:12:11;;;;;;;40.42;4.68;;;;;;;24.93;62.02;99413.34;7307096;19;129169;-41
2023/08/15 07:14:36;;;;;;;102.00;9.23;;;;;;;25.02;62.04;99422.88;7308047;19;130085;-42
2023/08/15 07:17:02;;;;;;;24.60;3.97;;;;;;;25.01;61.72;99427.31;7310051;19;129245;-43
2023/08/15 07:19:27;;;;;;;54.03;5.57;;;;;;;25.04;61.84;99426.19;7306631;19;129370;-45
2023/08/15 07:21:53;;;;;;;34.33;4.30;;;;;;;25.06;61.80;99432.06;7310181;19;129677;-43
2023/08/15 07:24:18;;;;;;;86.50;7.77;;;;;;;25.06;62.16;99429.44;7307394;19;129399;-43
2023/08/15 07:26:44;;;;;;;33.03;4.47;;;;;;;25.09;61.81;99432.56;7304649;19;130613;-43
2023/08/15 07:29:11;;;;;;;58.03;6.05;;;;;;;25.13;62.47;99430.44;7302829;19;129673;-43
2023/08/15 07:31:36;;;;;;;20.92;3.67;;;;;;;25.11;62.23;99427.13;7306961;19;129528;-42
2023/08/15 07:34:02;;;;;;;131.83;11.13;;;;;;;25.13;62.05;99430.44;7298316;19;130620;-42
2023/08/15 07:36:28;;;;;;;97.97;8.85;;;;;;;25.11;61.25;99433.22;7305439;19;130444;-44
2023/08/15 07:38:53;;;;;;;40.60;4.23;;;;;;;25.06;62.29;99411.03;7305506;19;130421;-41
2023/08/15 07:41:19;;;;;;;83.30;8.23;;;;;;;25.17;62.61;99426.50;7304265;19;129169;-42
2023/08/15 07:43:44;;;;;;;85.77;7.77;;;;;;;25.18;61.96;99428.13;7306997;19;129912;-38
2023/08/15 07:46:09;;;;;;;39.03;5.00;;;;;;;25.23;62.32;99431.06;7305454;19;129198;-42
2023/08/15 07:48:35;;;;;;;31.87;4.40;;;;;;;25.25;61.61;99434.38;7306823;19;129256;-44
2023/08/15 07:51:00;;;;;;;93.77;8.67;;;;;;;25.27;61.69;99437.66;7307134;19;129199;-43
2023/08/15 07:53:25;;;;;;;37.07;4.27;;;;;;;25.18;61.30;99425.50;7309431;19;129539;-40
2023/08/15 07:55:51;;;;;;;57.13;5.97;;;;;;;25.26;61.75;99428.09;7302805;19;131114;-37
2023/08/15 07:58:16;;;;;;;41.67;4.67;;;;;;;25.29;61.56;99440.91;7303749;19;130389;-44
2023/08/15 08:00:42;;;;;;;31.83;4.03;;;;;;;25.29;61.53;99440.91;7302753;19;131133;-40
2023/08/15 08:03:08;;;;;;;24.33;4.00;;;;;;;25.27;61.79;99443.72;7301896;19;131099;-39
2023/08/15 08:05:34;;;;;;;105.13;9.43;;;;;;;25.32;61.31;99456.41;7299334;19;129832;-43
2023/08/15 08:08:00;;;;;;;34.67;4.40;;;;;;;25.29;61.21;99462.81;7306760;19;129372;-43
2023/08/15 08:10:25;;;;;;;79.67;7.20;;;;;;;25.33;61.64;99468.56;7306325;19;129665;-44
2023/08/15 08:12:50;;;;;;;20.60;3.67;;;;;;;25.33;61.66;99471.19;7308045;19;130187;-39
2023/08/15 08:15:16;;;;;;;29.00;3.77;;;;;;;25.32;60.97;99467.72;7304341;19;129509;-42
2023/08/15 08:17:41;;;;;;;50.73;5.33;;;;;;;25.29;61.34;99460.19;7305941;19;129804;-34
2023/08/15 08:20:12;;;;;;;63.17;6.27;;;;;;;25.32;61.75;99462.47;7302744;19;129524;-41
2023/08/15 08:22:39;;;;;;;31.67;4.30;;;;;;;25.31;60.91;99460.00;7308779;19;129566;-40
2023/08/15 08:25:19;;;;;;;64.30;7.13;;;;;;;25.31;61.66;99457.38;7304073;19;131297;-38
2023/08/15 08:27:45;;;;;;;51.90;5.55;;;;;;;25.31;61.38;99460.84;7300857;19;129177;-36
2023/08/15 08:30:12;;;;;;;58.63;6.57;;;;;;;25.32;60.84;99456.41;7304601;19;129894;-41
2023/08/15 08:32:37;;;;;;;83.03;7.63;;;;;;;25.31;61.36;99454.75;7303978;19;130371;-34
2023/08/15 08:35:05;;;;;;;44.97;5.07;;;;;;;25.31;60.62;99460.00;7304392;19;129768;-42
2023/08/15 08:37:31;;;;;;;100.30;9.00;;;;;;;25.31;61.14;99460.00;7303027;19;129307;-38
2023/08/15 08:39:56;;;;;;;30.00;4.10;;;;;;;25.28;60.92;99466.44;7306604;19;129210;-36
2023/08/15 08:42:22;;;;;;;75.40;6.67;;;;;;;25.26;60.89;99462.31;7303525;19;129624;-37
2023/08/15 08:44:48;;;;;;;27.97;4.20;;;;;;;25.29;61.48;99477.75;7305618;19;130397;-43
2023/08/15 08:47:14;;;;;;;47.15;5.28;;;;;;;25.30;61.32;99469.69;7306342;19;129960;-38
2023/08/15 08:49:40;;;;;;;37.83;4.90;;;;;;;25.31;61.88;99474.00;7306452;19;129132;-39
2023/08/15 08:52:07;;;;;;;45.85;4.95;;;;;;;25.32;61.49;99480.88;7305307;19;130187;-37
2023/08/15 08:54:32;;;;;;;104.45;9.60;;;;;;;25.34;61.23;99480.72;7303405;19;130194;-36
2023/08/15 08:56:58;;;;;;;37.97;4.73;;;;;;;25.25;61.20;99456.25;7304547;19;129680;-41
2023/08/15 08:59:26;;;;;;;60.83;6.63;;;;;;;25.36;61.75;99471.72;7304016;19;129794;-45
2023/08/15 09:01:52;;;;;;;58.75;5.88;;;;;;;25.36;61.04;99473.53;7304623;19;129515;-43
2023/08/15 09:04:20;;;;;;;15.87;3.73;;;;;;;25.36;61.46;99469.09;7307041;19;130525;-37
2023/08/15 09:06:46;;;;;;;51.30;6.03;;;;;;;25.38;61.53;99482.06;7303272;19;130034;-33
2023/08/15 09:09:12;;;;;;;29.77;4.53;;;;;;;25.40;61.21;99478.28;7305949;19;129568;-34
2023/08/15 09:11:37;;;;;;;51.67;5.40;;;;;;;25.39;61.04;99478.44;7305305;19;131038;-42
2023/08/15 09:14:04;;;;;;;42.10;5.20;;;;;;;25.29;61.54;99459.34;7306015;19;129976;-34
2023/08/15 09:16:30;;;;;;;27.55;4.00;;;;;;;25.28;61.19;99453.28;7306047;19;130718;-38
2023/08/15 09:18:56;;;;;;;59.63;6.05;;;;;;;25.37;61.66;99465.44;7303369;19;130223;-36
2023/08/15 09:21:25;;;;;;;75.47;6.97;;;;;;;25.39;61.71;99470.56;7305323;19;129993;-39
2023/08/15 09:23:51;;;;;;;36.95;4.97;;;;;;;25.39;61.57;99468.75;7307877;19;129286;-43
2023/08/15 09:26:16;;;;;;;46.07;5.13;;;;;;;25.41;61.53;99471.22;7312606;19;129114;-40
2023/08/15 09:28:43;;;;;;;42.37;5.00;;;;;;;25.43;61.56;99464.81;7311825;19;129590;-36
2023/08/15 09:31:11;;;;;;;38.95;4.57;;;;;;;25.45;61.61;99451.47;7311107;19;130871;-41
2023/08/15 09:33:38;;;;;;;61.33;6.47;;;;;;;25.47;61.43;99454.72;7309772;19;131081;-42
2023/08/15 09:36:05;;;;;;;58.42;6.30;;;;;;;25.47;61.28;99439.78;7311448;19;130427;-40
2023/08/15 09:38:31;;;;;;;51.28;5.85;;;;;;;25.48;61.07;99430.06;7308961;19;129919;-41
2023/08/15 09:40:57;;;;;;;79.97;7.97;;;;;;;25.46;61.25;99426.78;7305550;19;129514;-42
2023/08/15 09:43:22;;;;;;;48.33;5.70;;;;;;;25.47;60.99;99428.41;7309409;19;131030;-31
2023/08/15 09:45:49;;;;;;;31.57;4.43;;;;;;;25.45;61.71;99420.69;7308444;19;129141;-39
2023/08/15 09:48:18;;;;;;;;;;;;;;;25.52;61.94;99420.81;7307894;19;131285;-41
2023/08/15 09:50:44;;;;;;;42.05;5.22;;;;;;;25.47;61.56;99426.59;7310330;19;129296;-38
2023/08/15 09:53:10;;;;;;;31.53;4.33;;;;;;;25.46;61.50;99424.97;7310571;19;129991;-35
2023/08/15 09:55:36;;;;;;;57.53;6.07;;;;;;;25.47;61.54;99423.16;7309957;19;130130;-45
2023/08/15 09:58:03;;;;;;;39.03;4.72;;;;;;;25.46;61.91;99426.78;7311049;19;129164;-42
2023/08/15 10:00:29;;;;;;;55.25;6.07;;;;;;;25.46;61.28;99437.31;7308813;19;130447;-37
2023/08/15 10:03:17;;;;;;;51.50;5.60;;;;;;;25.45;61.97;99439.13;7310210;19;129386;-38
2023/08/15 10:05:47;;;;;;;43.60;5.35;;;;;;;25.45;61.70;99441.75;7309395;19;129407;-45
2023/08/15 10:08:13;;;;;;;37.05;4.75;;;;;;;25.48;61.46;99435.34;7308862;19;130192;-35
2023/08/15 10:10:40;;;;;;;56.50;6.18;;;;;;;25.47;61.77;99438.94;7306576;19;130428;-38
2023/08/15 10:13:06;;;;;;;;;;;;;;;25.52;61.92;99431.34;7310224;19;130168;-45
2023/08/15 10:15:33;;;;;;;65.22;6.57;;;;;;;25.45;61.49;99425.16;7309189;19;129737;-37
2023/08/15 10:17:59;;;;;;;;;;;;;;;25.43;62.50;99422.69;7306995;19;130138;-42
2023/08/15 10:20:24;;;;;;;42.50;4.95;;;;;;;25.47;61.08;99425.78;7307042;19;129828;-43
2023/08/15 10:22:58;;;;;;;87.20;8.27;;;;;;;25.48;62.15;99424.81;7307115;19;130897;-38
2023/08/15 10:25:24;;;;;;;62.50;6.18;;;;;;;25.50;61.06;99434.16;7304317;19;129361;-41
2023/08/15 10:27:53;;;;;;;41.47;4.97;;;;;;;25.50;61.45;99430.72;7307617;19;130533;-40
2023/08/15 10:30:40;;;;;;;41.00;5.32;;;;;;;25.49;61.94;99431.69;7305357;19;129602;-40
2023/08/15 10:33:15;;;;;;;17.38;4.00;;;;;;;25.50;62.36;99422.84;7311719;19;130463;-37
2023/08/15 10:35:56;;;;;;;84.03;8.45;;;;;;;25.49;61.61;99424.63;7304202;19;129465;-37
2023/08/15 10:38:26;;;;;;;34.25;5.03;;;;;;;25.48;61.40;99422.19;7311862;19;129039;-35
2023/08/15 10:40:53;;;;;;;63.22;7.70;;;;;;;25.48;61.57;99424.81;7307630;19;129169;-41
2023/08/15 10:43:24;;;;;;;18.00;3.83;;;;;;;25.49;61.69;99423.81;7312811;19;132050;-36
2023/08/15 10:45:52;;;;;;;111.40;9.93;;;;;;;25.48;61.16;99419.53;7307052;19;130786;-46
2023/08/15 10:48:36;;;;;;;49.58;5.65;;;;;;;25.49;61.66;99429.06;7307176;19;129492;-40
2023/08/15 10:51:02;;;;;;;96.80;8.90;;;;;;;25.50;60.87;99436.00;7307232;19;130516;-35
2023/08/15 10:53:27;;;;;;;44.90;5.33;;;;;;;25.47;61.32;99425.78;7308753;19;129876;-43
2023/08/15 10:55:54;;;;;;;82.00;8.37;;;;;;;25.46;61.93;99424.16;7304975;19;131506;-40
2023/08/15 10:58:21;;;;;;;50.97;6.35;;;;;;;25.47;61.20;99423.16;7304514;19;129603;-42
2023/08/15 11:00:49;;;;;;;48.03;5.60;;;;;;;25.47;61.39;99420.50;7306242;19;129877;-44
2023/08/15 11:03:15;;;;;;;68.97;7.15;;;;;;;25.46;61.17;99416.25;7301994;19;131276;-35
2023/08/15 11:05:41;;;;;;;65.97;7.03;;;;;;;25.49;61.34;99416.75;7303296;19;130570;-36
2023/08/15 11:08:15;;;;;;;49.73;5.37;;;;;;;25.49;61.65;99415.91;7306818;19;129657;-38
2023/08/15 11:10:50;;;;;;;89.28;8.98;;;;;;;25.47;62.29;99415.25;7306781;19;130595;-38
2023/08/15 11:13:16;;;;;;;63.28;6.95;;;;;;;25.47;61.63;99415.25;7307899;19;130872;-38